Time;durP1;ratioP1;P1;durP2;ratioP2;P2;SDS_P1;SDS_P2;PMS_P1;PMS_P2;Temp;Humidity;BMP_temperature;BMP_pressure;BME280_temperature;BME280_humidity;BME280_pressure;Samples;Min_cycle;Max_cycle;Signal;HPM_P1;HPM_P2
2022/03/09 00:03:12;;;;;;;;;;;4.30;43.50;;;;;;8389870;28;19940;-70
2022/03/09 00:07:13;;;;;;;;;;;4.20;43.00;;;;;;8406950;28;19935;-71
2022/03/09 00:11:15;;;;;;;;;;;4.20;43.30;;;;;;8415425;28;19924;-70
2022/03/09 00:15:17;;;;;;;;;;;4.20;43.80;;;;;;8410947;28;19924;-70
2022/03/09 00:19:18;;;;;;;;;;;4.10;43.50;;;;;;8403483;28;19924;-70
2022/03/09 00:23:20;;;;;;;;;;;4.10;43.50;;;;;;8405406;28;19931;-70
2022/03/09 00:27:22;;;;;;;;;;;4.00;43.60;;;;;;8410589;28;19928;-70
2022/03/09 00:31:23;;;;;;;;;;;4.00;43.70;;;;;;8413863;28;19931;-71
2022/03/09 00:35:25;;;;;;;;;;;3.90;43.70;;;;;;8410070;28;19925;-70
2022/03/09 00:39:27;;;;;;;;;;;3.80;43.90;;;;;;8409567;28;20038;-70
2022/03/09 00:43:28;;;;;;;;;;;3.80;44.60;;;;;;8410952;28;19940;-70
2022/03/09 00:47:30;;;;;;;;;;;3.80;45.20;;;;;;8409081;28;19928;-70
2022/03/09 00:51:32;;;;;;;;;;;3.80;44.60;;;;;;8411238;28;19932;-70
2022/03/09 00:55:33;;;;;;;;;;;3.80;44.90;;;;;;8388111;28;19931;-70
2022/03/09 00:59:35;;;;;;;;;;;3.70;45.00;;;;;;8410543;28;20335;-70
2022/03/09 01:03:37;;;;;;;;;;;3.60;44.60;;;;;;8383016;28;19924;-70
2022/03/09 01:07:38;;;;;;;;;;;3.50;44.70;;;;;;8407778;28;19931;-70
2022/03/09 01:11:40;;;;;;;;;;;3.40;44.50;;;;;;8408462;28;19924;-70
2022/03/09 01:15:41;;;;;;;;;;;3.40;44.90;;;;;;8405973;28;19935;-70
2022/03/09 01:19:43;;;;;;;;;;;3.30;45.40;;;;;;8413876;28;20402;-70
2022/03/09 01:23:45;;;;;;;;;;;3.30;46.20;;;;;;8390556;28;20356;-70
2022/03/09 01:27:46;;;;;;;;;;;3.40;45.50;;;;;;8391979;28;19963;-69
2022/03/09 01:31:48;;;;;;;;;;;3.30;45.10;;;;;;8385098;28;19925;-70
2022/03/09 01:35:50;;;;;;;;;;;3.30;44.70;;;;;;8385543;28;19932;-70
2022/03/09 01:39:51;;;;;;;;;;;3.30;45.10;;;;;;8407760;28;19924;-70
2022/03/09 01:44:06;;;;;;;;;;;3.20;44.90;;;;;;8403962;28;19924;-71
2022/03/09 01:48:08;;;;;;;;;;;3.20;44.60;;;;;;8397719;28;19924;-71
2022/03/09 01:52:11;;;;;;;;;;;3.10;45.00;;;;;;8407675;28;19929;-71
2022/03/09 01:56:12;;;;;;;;;;;3.00;44.70;;;;;;8394665;28;19943;-71
2022/03/09 02:00:14;;;;;;;;;;;2.90;44.40;;;;;;8400199;28;19932;-70
2022/03/09 02:04:17;;;;;;;;;;;2.90;44.80;;;;;;8408473;28;19924;-71
2022/03/09 02:12:39;;;;;;;;;;;2.80;44.90;;;;;;8406985;28;19931;-70
2022/03/09 02:16:40;;;;;;;;;;;2.80;44.90;;;;;;8411337;28;19931;-70
2022/03/09 02:20:44;;;;;;;;;;;2.70;44.90;;;;;;8407362;28;20291;-70
2022/03/09 02:24:46;;;;;;;;;;;2.60;45.00;;;;;;8412229;28;19931;-71
2022/03/09 02:28:48;;;;;;;;;;;2.60;44.90;;;;;;8408604;28;20371;-70
2022/03/09 02:32:50;;;;;;;;;;;2.50;45.40;;;;;;8407953;28;19971;-70
2022/03/09 02:36:51;;;;;;;;;;;2.40;45.60;;;;;;8412547;28;19924;-70
2022/03/09 02:40:53;;;;;;;;;;;2.40;45.50;;;;;;8411342;28;19928;-70
2022/03/09 02:44:54;;;;;;;;;;;2.40;45.50;;;;;;8415596;28;20392;-70
2022/03/09 02:48:56;;;;;;;;;;;2.40;45.60;;;;;;8417506;28;19932;-70
2022/03/09 02:52:58;;;;;;;;;;;2.40;46.20;;;;;;8392052;28;19925;-70
2022/03/09 02:57:00;;;;;;;;;;;2.40;46.30;;;;;;8391044;28;19925;-71
2022/03/09 03:01:01;;;;;;;;;;;2.40;45.90;;;;;;8420069;28;19949;-70
2022/03/09 03:05:04;;;;;;;;;;;2.30;45.50;;;;;;8418432;28;19943;-70
2022/03/09 03:09:05;;;;;;;;;;;2.20;46.00;;;;;;8426619;28;19931;-70
2022/03/09 03:13:07;;;;;;;;;;;2.20;46.30;;;;;;8387866;28;19932;-70
2022/03/09 03:17:09;;;;;;;;;;;2.20;46.40;;;;;;8414509;28;19925;-70
2022/03/09 03:21:11;;;;;;;;;;;2.20;46.00;;;;;;8406964;28;20640;-70
2022/03/09 03:25:12;;;;;;;;;;;2.10;46.30;;;;;;8423407;28;19943;-70
2022/03/09 03:29:17;;;;;;;;;;;2.10;46.40;;;;;;8391941;28;19924;-71
2022/03/09 03:33:20;;;;;;;;;;;2.10;46.60;;;;;;8414080;28;19931;-70
2022/03/09 03:37:21;;;;;;;;;;;2.00;46.90;;;;;;8413319;28;19947;-69
2022/03/09 03:41:23;;;;;;;;;;;2.00;46.40;;;;;;8390970;28;19932;-70
2022/03/09 03:45:27;;;;;;;;;;;2.00;46.40;;;;;;8401545;28;19924;-70
2022/03/09 03:49:29;;;;;;;;;;;1.90;46.20;;;;;;8409121;28;19932;-71
2022/03/09 03:53:30;;;;;;;;;;;1.80;46.50;;;;;;8408030;28;19928;-70
2022/03/09 03:57:32;;;;;;;;;;;1.80;46.50;;;;;;8392585;28;19936;-70
2022/03/09 04:01:34;;;;;;;;;;;1.80;47.10;;;;;;8407458;28;19939;-70
2022/03/09 04:05:35;;;;;;;;;;;1.80;47.40;;;;;;8387085;28;20464;-70
2022/03/09 04:09:37;;;;;;;;;;;1.80;47.10;;;;;;8412652;28;19974;-70
2022/03/09 04:13:39;;;;;;;;;;;1.70;47.50;;;;;;8410264;28;19928;-70
2022/03/09 04:17:45;;;;;;;;;;;1.80;48.70;;;;;;8406683;28;19936;-70
2022/03/09 04:21:46;;;;;;;;;;;1.70;47.60;;;;;;8395338;28;19928;-70
2022/03/09 04:25:48;;;;;;;;;;;1.70;47.50;;;;;;8415856;28;19932;-70
2022/03/09 04:29:49;;;;;;;;;;;1.70;49.00;;;;;;8395824;28;19937;-70
2022/03/09 04:33:51;;;;;;;;;;;1.70;48.40;;;;;;8407034;28;19947;-71
2022/03/09 04:37:53;;;;;;;;;;;1.70;48.20;;;;;;8390531;28;20268;-70
2022/03/09 04:41:55;;;;;;;;;;;1.70;48.20;;;;;;8409613;28;19924;-70
2022/03/09 04:45:56;;;;;;;;;;;1.70;49.80;;;;;;8389069;28;19951;-71
2022/03/09 04:49:58;;;;;;;;;;;1.70;48.20;;;;;;8402862;28;20005;-70
2022/03/09 04:54:00;;;;;;;;;;;1.60;47.90;;;;;;8413299;28;19928;-70
2022/03/09 04:58:01;;;;;;;;;;;1.60;48.80;;;;;;8410808;28;19931;-70
2022/03/09 05:02:03;;;;;;;;;;;1.50;48.80;;;;;;8416631;28;19924;-70
2022/03/09 05:06:05;;;;;;;;;;;1.50;48.50;;;;;;8395527;28;19971;-70
2022/03/09 05:10:08;;;;;;;;;;;1.50;49.20;;;;;;8414035;28;19924;-70
2022/03/09 05:14:10;;;;;;;;;;;1.50;50.40;;;;;;8416764;28;20375;-70
2022/03/09 05:18:11;;;;;;;;;;;1.50;49.10;;;;;;8400838;28;19924;-70
2022/03/09 05:22:13;;;;;;;;;;;1.40;48.90;;;;;;8408598;28;20059;-70
2022/03/09 05:26:24;;;;;;;;;;;1.40;48.80;;;;;;8409061;28;20294;-70
2022/03/09 05:30:25;;;;;;;;;;;1.40;50.50;;;;;;8381262;28;20356;-70
2022/03/09 05:34:33;;;;;;;;;;;1.40;50.20;;;;;;8402661;27;1913756;-70
2022/03/09 05:38:34;;;;;;;;;;;1.40;49.50;;;;;;8434147;28;19932;-70
2022/03/09 05:42:36;;;;;;;;;;;1.30;49.20;;;;;;8445632;28;19931;-70
2022/03/09 05:46:38;;;;;;;;;;;1.30;48.80;;;;;;8426541;28;19940;-70
2022/03/09 05:50:40;;;;;;;;;;;1.30;49.00;;;;;;8448208;28;19931;-70
2022/03/09 05:54:42;;;;;;;;;;;1.30;49.20;;;;;;8448437;28;19928;-70
2022/03/09 05:58:43;;;;;;;;;;;1.20;50.00;;;;;;8444803;28;19924;-69
2022/03/09 06:02:45;;;;;;;;;;;1.20;50.10;;;;;;8450733;28;19935;-70
2022/03/09 06:06:52;;;;;;;;;;;1.20;49.70;;;;;;8429206;28;19928;-70
2022/03/09 06:10:54;;;;;;;;;;;1.20;50.50;;;;;;8432221;28;19971;-69
2022/03/09 06:14:55;;;;;;;;;;;1.20;49.80;;;;;;8448230;28;19948;-70
2022/03/09 06:18:57;;;;;;;;;;;1.20;49.60;;;;;;8454886;28;19932;-70
2022/03/09 06:22:58;;;;;;;;;;;1.20;50.30;;;;;;8451295;28;20019;-70
2022/03/09 06:27:00;;;;;;;;;;;1.20;49.50;;;;;;8429884;28;20271;-70
2022/03/09 06:31:02;;;;;;;;;;;1.20;49.60;;;;;;8428936;28;19929;-70
2022/03/09 06:35:04;;;;;;;;;;;1.20;51.90;;;;;;8441656;28;19939;-70
2022/03/09 06:39:06;;;;;;;;;;;1.20;52.10;;;;;;8448199;28;20387;-69
2022/03/09 06:43:08;;;;;;;;;;;1.30;53.50;;;;;;8429962;28;19946;-70
2022/03/09 06:47:09;;;;;;;;;;;1.40;54.20;;;;;;8429524;28;19939;-70
2022/03/09 06:51:11;;;;;;;;;;;1.50;56.00;;;;;;8413724;28;19943;-70
2022/03/09 06:55:12;;;;;;;;;;;1.60;54.00;;;;;;8421465;28;19966;-70
2022/03/09 06:59:14;;;;;;;;;;;1.70;53.20;;;;;;8424957;28;19932;-70
2022/03/09 07:03:16;;;;;;;;;;;1.80;53.20;;;;;;8418496;28;19944;-70
2022/03/09 07:07:18;;;;;;;;;;;1.90;53.10;;;;;;8423498;28;20383;-70
2022/03/09 07:11:19;;;;;;;;;;;2.10;54.90;;;;;;8425365;28;19924;-70
2022/03/09 07:15:21;;;;;;;;;;;2.20;56.50;;;;;;8424418;28;19931;-70
2022/03/09 07:19:23;;;;;;;;;;;2.30;55.40;;;;;;8425516;28;19951;-69
2022/03/09 07:23:27;;;;;;;;;;;2.40;54.10;;;;;;8425722;28;19985;-70
2022/03/09 07:27:29;;;;;;;;;;;2.60;54.90;;;;;;8404598;28;19924;-70
2022/03/09 07:31:30;;;;;;;;;;;2.70;55.50;;;;;;8423593;28;19939;-70
2022/03/09 07:35:32;;;;;;;;;;;2.80;56.70;;;;;;8400365;28;19928;-70
2022/03/09 07:39:34;;;;;;;;;;;2.90;56.10;;;;;;8426480;28;19936;-70
2022/03/09 07:43:36;;;;;;;;;;;3.00;55.60;;;;;;8417061;28;19924;-70
2022/03/09 07:47:38;;;;;;;;;;;3.20;56.20;;;;;;8422718;28;19925;-70
2022/03/09 07:51:39;;;;;;;;;;;3.30;56.10;;;;;;8414667;28;19935;-70
2022/03/09 07:55:41;;;;;;;;;;;3.40;55.90;;;;;;8421798;28;19924;-70
2022/03/09 07:59:42;;;;;;;;;;;3.60;58.20;;;;;;8432377;28;19924;-70
2022/03/09 08:03:44;;;;;;;;;;;3.70;58.10;;;;;;8421789;28;19928;-70
2022/03/09 08:07:46;;;;;;;;;;;3.80;58.40;;;;;;8426141;28;19943;-70
2022/03/09 08:11:48;;;;;;;;;;;4.00;56.70;;;;;;8402557;28;20383;-70
2022/03/09 08:15:49;;;;;;;;;;;4.20;58.00;;;;;;8423219;28;19924;-70
2022/03/09 08:19:51;;;;;;;;;;;4.30;57.50;;;;;;8421619;28;19928;-70
2022/03/09 08:23:53;;;;;;;;;;;4.40;59.80;;;;;;8426176;28;19931;-70
2022/03/09 08:27:54;;;;;;;;;;;4.60;58.90;;;;;;8420778;28;19924;-70
2022/03/09 08:31:56;;;;;;;;;;;4.70;59.80;;;;;;8405555;28;19931;-70
2022/03/09 08:35:59;;;;;;;;;;;4.90;59.70;;;;;;8409883;28;20240;-70
2022/03/09 08:40:01;;;;;;;;;;;5.00;58.70;;;;;;8409305;28;19925;-70
2022/03/09 08:44:03;;;;;;;;;;;5.30;58.00;;;;;;8402621;28;20375;-70
2022/03/09 08:48:05;;;;;;;;;;;5.50;59.70;;;;;;8406969;28;20391;-70
2022/03/09 08:52:07;;;;;;;;;;;5.60;59.90;;;;;;8381341;28;20011;-70
2022/03/09 08:56:10;;;;;;;;;;;5.80;58.60;;;;;;8382129;28;20358;-70
2022/03/09 09:00:12;;;;;;;;;;;6.00;58.10;;;;;;8383651;28;20277;-70
2022/03/09 09:04:16;;;;;;;;;;;6.20;58.30;;;;;;8418767;28;19927;-70
2022/03/09 09:08:18;;;;;;;;;;;6.30;58.80;;;;;;8397652;28;19996;-69
2022/03/09 09:12:20;;;;;;;;;;;6.40;59.00;;;;;;8421631;28;19952;-70
2022/03/09 09:16:21;;;;;;;;;;;6.50;59.30;;;;;;8427334;28;19931;-70
2022/03/09 09:20:25;;;;;;;;;;;6.60;58.70;;;;;;8412098;28;20027;-70
2022/03/09 09:24:27;;;;;;;;;;;6.80;59.40;;;;;;8419911;28;19930;-70
2022/03/09 09:28:29;;;;;;;;;;;7.10;58.60;;;;;;8397831;28;20296;-69
2022/03/09 09:32:30;;;;;;;;;;;7.30;58.70;;;;;;8403570;28;19935;-69
2022/03/09 09:36:32;;;;;;;;;;;7.40;58.60;;;;;;8411459;28;19928;-70
2022/03/09 09:40:35;;;;;;;;;;;7.60;58.70;;;;;;8407606;28;20358;-70
2022/03/09 09:44:37;;;;;;;;;;;7.70;58.50;;;;;;8401778;28;19936;-70
2022/03/09 09:48:40;;;;;;;;;;;7.80;58.30;;;;;;8383838;28;19935;-70
2022/03/09 09:52:42;;;;;;;;;;;7.90;58.50;;;;;;8386030;28;19936;-70
2022/03/09 09:56:44;;;;;;;;;;;8.00;58.50;;;;;;8413872;28;20435;-70
2022/03/09 10:00:45;;;;;;;;;;;8.30;58.80;;;;;;8406825;28;20303;-70
2022/03/09 10:04:50;;;;;;;;;;;8.80;59.60;;;;;;8395294;28;19964;-70
2022/03/09 10:09:00;;;;;;;;;;;9.20;60.90;;;;;;8401322;28;19932;-70
2022/03/09 10:13:15;;;;;;;;;;;9.60;63.20;;;;;;8403044;28;19939;-70
2022/03/09 10:17:17;;;;;;;;;;;10.10;64.20;;;;;;8403765;28;19959;-70
2022/03/09 10:21:20;;;;;;;;;;;10.40;64.20;;;;;;8416612;28;20325;-70
2022/03/09 10:25:23;;;;;;;;;;;10.70;66.00;;;;;;8408483;28;19994;-69
2022/03/09 10:29:27;;;;;;;;;;;10.90;68.50;;;;;;8402115;28;19925;-70
2022/03/09 10:33:29;;;;;;;;;;;11.20;67.50;;;;;;8412397;28;19939;-70
2022/03/09 10:37:36;;;;;;;;;;;11.10;64.00;;;;;;8430690;28;19927;-70
2022/03/09 10:41:38;;;;;;;;;;;11.20;64.10;;;;;;8420325;28;19931;-70
2022/03/09 10:45:59;;;;;;;;;;;11.70;69.30;;;;;;8431904;28;19924;-70
2022/03/09 10:50:17;;;;;;;;;;;12.20;71.10;;;;;;8422646;28;19932;-70
2022/03/09 10:54:26;;;;;;;;;;;12.80;72.90;;;;;;8415843;28;19932;-70
2022/03/09 10:58:36;;;;;;;;;;;13.20;67.80;;;;;;8423301;28;20292;-70
2022/03/09 11:02:49;;;;;;;;;;;13.40;71.50;;;;;;8425325;28;19924;-70
2022/03/09 11:06:51;;;;;;;;;;;13.90;70.90;;;;;;8427192;28;19928;-70
2022/03/09 11:10:55;;;;;;;;;;;14.30;75.70;;;;;;8423754;28;20332;-70
2022/03/09 11:14:57;;;;;;;;;;;14.60;71.10;;;;;;8422646;28;19924;-70
2022/03/09 11:18:58;;;;;;;;;;;15.00;76.70;;;;;;8420865;28;19931;-70
2022/03/09 11:23:00;;;;;;;;;;;15.30;73.50;;;;;;8422322;28;19944;-70
2022/03/09 11:27:03;;;;;;;;;;;15.60;74.50;;;;;;8425434;28;19924;-71
2022/03/09 11:31:06;;;;;;;;;;;15.90;76.70;;;;;;8401928;28;19932;-71
2022/03/09 11:35:28;;;;;;;;;;;16.30;76.90;;;;;;8424531;28;20406;-71
2022/03/09 11:39:29;;;;;;;;;;;16.80;77.00;;;;;;8420050;28;19931;-71
2022/03/09 11:43:31;;;;;;;;;;;17.30;76.60;;;;;;8417877;28;19924;-71
2022/03/09 11:47:53;;;;;;;;;;;17.80;77.40;;;;;;8425895;28;19951;-71
2022/03/09 11:52:09;;;;;;;;;;;17.90;74.70;;;;;;8414685;28;20273;-71
2022/03/09 11:56:35;;;;;;;;;;;17.90;68.20;;;;;;8418419;28;19935;-71
2022/03/09 12:00:56;;;;;;;;;;;17.90;69.00;;;;;;8400890;28;19936;-71
2022/03/09 12:05:00;;;;;;;;;;;17.80;59.30;;;;;;8401233;28;20391;-71
2022/03/09 12:09:01;;;;;;;;;;;17.70;62.20;;;;;;8410097;28;20272;-71
2022/03/09 12:13:13;;;;;;;;;;;17.70;59.80;;;;;;8406747;28;19975;-71
2022/03/09 12:17:26;;;;;;;;;;;17.90;58.90;;;;;;8400546;28;19935;-71
2022/03/09 12:21:32;;;;;;;;;;;18.30;61.70;;;;;;8408656;28;19964;-71
2022/03/09 12:25:43;;;;;;;;;;;18.70;56.20;;;;;;8386137;28;19979;-71
2022/03/09 12:29:45;;;;;;;;;;;18.90;60.40;;;;;;8399071;28;19939;-71
2022/03/09 12:33:50;;;;;;;;;;;19.10;61.80;;;;;;8401724;28;20344;-71
2022/03/09 12:37:53;;;;;;;;;;;19.10;59.00;;;;;;8410870;28;20406;-71
2022/03/09 12:41:56;;;;;;;;;;;19.40;61.80;;;;;;8402207;28;19931;-71
2022/03/09 12:45:59;;;;;;;;;;;19.80;62.50;;;;;;8399644;28;19932;-71
2022/03/09 12:50:01;;;;;;;;;;;20.10;60.00;;;;;;8399631;28;19924;-71
2022/03/09 12:54:03;;;;;;;;;;;20.40;59.70;;;;;;8406295;28;19928;-71
2022/03/09 12:58:05;;;;;;;;;;;20.50;62.70;;;;;;8388053;28;20050;-71
2022/03/09 13:02:07;;;;;;;;;;;20.60;63.20;;;;;;8413371;28;19928;-71
2022/03/09 13:06:25;;;;;;;;;;;20.00;61.30;;;;;;8418883;28;20372;-70
2022/03/09 13:10:28;;;;;;;;;;;19.50;57.20;;;;;;8417107;28;19932;-70
2022/03/09 13:14:30;;;;;;;;;;;18.70;49.30;;;;;;8424670;28;19931;-70
2022/03/09 13:18:33;;;;;;;;;;;18.30;48.90;;;;;;8424147;28;19987;-70
2022/03/09 13:22:42;;;;;;;;;;;18.00;47.70;;;;;;8400922;28;19935;-70
2022/03/09 13:26:44;;;;;;;;;;;18.00;47.40;;;;;;8421387;28;19932;-70
2022/03/09 13:30:52;;;;;;;;;;;17.90;46.30;;;;;;8420248;28;20308;-70
2022/03/09 13:34:55;;;;;;;;;;;17.70;44.70;;;;;;8419143;28;19928;-70
2022/03/09 13:39:01;;;;;;;;;;;17.10;42.80;;;;;;8418153;28;19930;-70
2022/03/09 13:43:02;;;;;;;;;;;16.80;43.10;;;;;;8415332;28;19928;-71
2022/03/09 13:47:08;;;;;;;;;;;16.70;42.90;;;;;;8414079;28;19928;-70
2022/03/09 13:51:11;;;;;;;;;;;16.50;42.60;;;;;;8415104;28;20189;-70
2022/03/09 13:55:20;;;;;;;;;;;16.50;42.50;;;;;;8422057;28;19936;-70
2022/03/09 13:59:41;;;;;;;;;;;16.50;42.50;;;;;;8431739;28;19931;-70
2022/03/09 14:03:43;;;;;;;;;;;16.70;42.70;;;;;;8425241;28;19928;-70
2022/03/09 14:07:45;;;;;;;;;;;16.70;42.90;;;;;;8430012;28;19972;-70
2022/03/09 14:11:47;;;;;;;;;;;16.70;42.60;;;;;;8426351;28;19931;-70
2022/03/09 14:15:49;;;;;;;;;;;16.70;42.70;;;;;;8425729;28;19928;-70
2022/03/09 14:19:51;;;;;;;;;;;16.70;42.00;;;;;;8429003;28;19963;-70
2022/03/09 14:23:59;;;;;;;;;;;16.70;42.60;;;;;;8422346;28;19939;-70
2022/03/09 14:28:00;;;;;;;;;;;16.60;42.20;;;;;;8408467;28;19924;-70
2022/03/09 14:32:02;;;;;;;21.95;12.10;;;16.80;41.50;;;;;;8427273;28;19924;-70
2022/03/09 14:36:06;;;;;;;;;;;17.20;43.20;;;;;;8427902;28;20484;-70
2022/03/09 14:40:08;;;;;;;;;;;18.20;46.00;;;;;;8429289;28;19931;-70
2022/03/09 14:44:10;;;;;;;;;;;19.30;46.50;;;;;;8425417;28;19966;-70
2022/03/09 14:48:11;;;;;;;;;;;20.10;48.90;;;;;;8426639;28;19969;-70
2022/03/09 14:52:13;;;;;;;;;;;20.90;49.70;;;;;;8417303;28;19920;-70
2022/03/09 14:56:15;;;;;;;;;;;21.80;50.30;;;;;;8425473;28;19927;-70
2022/03/09 15:00:19;;;;;;;;;;;22.10;47.50;;;;;;8426350;28;20328;-70
2022/03/09 15:04:21;;;;;;;;;;;22.00;46.00;;;;;;8422115;28;19927;-71
2022/03/09 15:08:28;;;;;;;;;;;21.80;46.40;;;;;;8433651;28;19920;-71
2022/03/09 15:12:30;;;;;;;;;;;22.20;49.00;;;;;;8424714;28;19928;-71
2022/03/09 15:16:34;;;;;;;;;;;23.00;48.70;;;;;;8427907;28;19928;-71
2022/03/09 15:20:36;;;;;;;;;;;23.30;49.20;;;;;;8416822;28;20379;-71
2022/03/09 15:24:38;;;;;;;;;;;23.50;48.40;;;;;;8421383;28;19920;-71
2022/03/09 15:28:39;;;;;;;;;;;23.40;47.20;;;;;;8409042;28;19927;-71
2022/03/09 15:32:41;;;;;;;;;;;23.20;45.90;;;;;;8422312;28;19940;-71
2022/03/09 15:36:43;;;;;;;;;;;22.90;45.70;;;;;;8428009;28;19939;-71
2022/03/09 15:40:45;;;;;;;22.77;14.30;;;22.80;44.70;;;;;;8420520;28;19927;-71
2022/03/09 15:44:47;;;;;;;22.23;14.40;;;22.80;44.90;;;;;;8423406;28;20077;-71
2022/03/09 15:48:51;;;;;;;21.25;13.50;;;22.80;43.40;;;;;;8425015;28;20044;-71
2022/03/09 15:52:54;;;;;;;22.33;14.95;;;22.60;43.80;;;;;;8397578;28;20106;-71
2022/03/09 15:56:56;;;;;;;;;;;22.40;44.00;;;;;;8417877;28;20092;-71
2022/03/09 16:00:58;;;;;;;25.60;15.23;;;22.30;43.70;;;;;;8420494;28;19920;-70
2022/03/09 16:05:00;;;;;;;23.15;13.85;;;22.50;43.40;;;;;;8419713;28;20040;-71
2022/03/09 16:09:01;;;;;;;;;;;22.30;43.00;;;;;;8421165;28;19935;-71
2022/03/09 16:13:03;;;;;;;;;;;21.90;42.70;;;;;;8424356;28;19964;-71
2022/03/09 16:17:05;;;;;;;;;;;21.60;41.90;;;;;;8422983;28;19928;-71
2022/03/09 16:21:08;;;;;;;;;;;21.30;41.50;;;;;;8425798;28;19977;-71
2022/03/09 16:25:10;;;;;;;;;;;21.10;41.00;;;;;;8427725;28;19931;-71
2022/03/09 16:29:24;;;;;;;;;;;21.10;40.50;;;;;;8415920;28;20146;-71
2022/03/09 16:33:26;;;;;;;;;;;21.20;40.90;;;;;;8406711;28;19924;-71
2022/03/09 16:37:27;;;;;;;;;;;21.30;40.80;;;;;;8419525;28;19924;-71
2022/03/09 16:41:29;;;;;;;;;;;21.40;40.20;;;;;;8423823;28;19931;-71
2022/03/09 16:45:34;;;;;;;;;;;21.50;40.70;;;;;;8422150;28;19924;-71
2022/03/09 16:49:35;;;;;;;;;;;21.40;40.70;;;;;;8421969;28;19977;-71
2022/03/09 16:53:37;;;;;;;;;;;20.90;39.80;;;;;;8388574;28;19924;-71
2022/03/09 16:57:39;;;;;;;;;;;20.30;39.70;;;;;;8372328;28;19924;-71
2022/03/09 17:01:40;;;;;;;;;;;19.90;39.60;;;;;;8385102;28;19925;-71
2022/03/09 17:05:42;;;;;;;;;;;19.30;39.10;;;;;;8380684;28;19947;-71
2022/03/09 17:09:44;;;;;;;;;;;18.90;39.10;;;;;;8375316;28;19931;-71
2022/03/09 17:13:45;;;;;;;;;;;18.40;38.90;;;;;;8385081;28;19932;-71
2022/03/09 17:17:48;;;;;;;;;;;17.80;38.90;;;;;;8401750;28;19935;-70
2022/03/09 17:21:49;;;;;;;;;;;17.20;39.10;;;;;;8391297;28;19929;-70
2022/03/09 17:25:51;;;;;;;;;;;16.70;39.30;;;;;;8390442;28;19924;-71
2022/03/09 17:29:53;;;;;;;;;;;16.30;39.50;;;;;;8380099;28;19932;-70
2022/03/09 17:33:55;;;;;;;;;;;15.90;39.30;;;;;;8393987;28;19973;-70
2022/03/09 17:37:57;;;;;;;;;;;15.50;39.10;;;;;;8397474;28;19924;-70
2022/03/09 17:41:59;;;;;;;;;;;15.20;39.00;;;;;;8386134;28;19947;-70
2022/03/09 17:46:01;;;;;;;;;;;14.90;39.10;;;;;;8387462;28;19928;-70
2022/03/09 17:50:03;;;;;;;;;;;14.60;39.30;;;;;;8363964;28;19928;-71
2022/03/09 17:54:05;;;;;;;;;;;14.30;39.40;;;;;;8391498;28;19959;-71
2022/03/09 17:58:07;;;;;;;;;;;14.10;39.60;;;;;;8402350;28;21136;-70
2022/03/09 18:02:10;;;;;;;;;;;13.80;39.50;;;;;;8368139;28;19928;-70
2022/03/09 18:06:12;;;;;;;;;;;13.60;39.60;;;;;;8386474;28;20320;-70
2022/03/09 18:10:14;;;;;;;;;;;13.30;39.80;;;;;;8388157;28;19928;-70
2022/03/09 18:14:15;;;;;;;;;;;13.10;40.00;;;;;;8373558;28;19935;-70
2022/03/09 18:18:17;;;;;;;;;;;12.90;40.00;;;;;;8389496;28;19932;-70
2022/03/09 18:22:19;;;;;;;;;;;12.80;40.00;;;;;;8384774;28;20368;-70
2022/03/09 18:26:21;;;;;;;;;;;12.70;40.10;;;;;;8386608;28;19932;-70
2022/03/09 18:30:22;;;;;;;;;;;12.60;40.20;;;;;;8385126;28;19925;-70
2022/03/09 18:34:24;;;;;;;;;;;12.70;40.30;;;;;;8369048;28;19978;-70
2022/03/09 18:38:26;;;;;;;;;;;12.70;40.10;;;;;;8391460;28;19964;-70
2022/03/09 18:42:27;;;;;;;;;;;12.60;39.90;;;;;;8393470;28;19933;-70
2022/03/09 18:46:29;;;;;;;;;;;12.50;40.00;;;;;;8379795;28;19940;-71
2022/03/09 18:50:31;;;;;;;;;;;12.40;40.10;;;;;;8379642;28;19967;-70
2022/03/09 18:54:32;;;;;;;;;;;12.20;40.10;;;;;;8390480;28;20302;-70
2022/03/09 18:58:34;;;;;;;;;;;12.10;40.20;;;;;;8392889;28;20373;-70
2022/03/09 19:02:36;;;;;;;;;;;12.00;40.20;;;;;;8375782;28;19932;-70
2022/03/09 19:06:37;;;;;;;;;;;11.80;40.30;;;;;;8394344;28;19932;-70
2022/03/09 19:10:39;;;;;;;;;;;11.80;40.40;;;;;;8406142;28;19924;-70
2022/03/09 19:14:41;;;;;;;;;;;11.80;40.30;;;;;;8395615;28;19924;-70
2022/03/09 19:18:42;;;;;;;;;;;11.70;40.30;;;;;;8392536;28;19924;-70
2022/03/09 19:22:44;;;;;;;;;;;11.70;40.20;;;;;;8392779;28;19929;-70
2022/03/09 19:26:45;;;;;;;;;;;11.70;40.30;;;;;;8372745;28;19939;-70
2022/03/09 19:30:47;;;;;;;;;;;11.50;40.10;;;;;;8395103;28;19939;-70
2022/03/09 19:34:49;;;;;;;;;;;11.30;40.40;;;;;;8406239;28;19933;-70
2022/03/09 19:38:50;;;;;;;;;;;11.00;40.60;;;;;;8387462;28;19936;-70
2022/03/09 19:42:52;;;;;;;;;;;10.80;40.90;;;;;;8396044;28;19928;-70
2022/03/09 19:46:54;;;;;;;;;;;10.70;41.20;;;;;;8394446;28;19932;-70
2022/03/09 19:50:56;;;;;;;;;;;10.60;41.00;;;;;;8391169;28;19928;-70
2022/03/09 19:54:59;;;;;;;;;;;10.60;42.00;;;;;;8382494;28;19931;-70
2022/03/09 19:59:00;;;;;;;;;;;10.50;41.20;;;;;;8399807;28;20383;-70
2022/03/09 20:03:03;;;;;;;;;;;10.20;41.50;;;;;;8405871;28;20455;-71
2022/03/09 20:07:05;;;;;;;;;;;9.90;43.00;;;;;;8373938;28;19954;-70
2022/03/09 20:11:07;;;;;;;;;;;9.70;43.30;;;;;;8389967;28;20236;-70
2022/03/09 20:15:09;;;;;;;;;;;9.70;43.30;;;;;;8391735;28;19939;-70
2022/03/09 20:19:12;;;;;;;;;;;9.70;43.20;;;;;;8390937;28;19928;-70
2022/03/09 20:23:14;;;;;;;;;;;9.50;43.30;;;;;;8396992;28;20320;-70
2022/03/09 20:27:21;;;;;;;;;;;9.30;43.70;;;;;;8388368;28;20338;-71
2022/03/09 20:31:22;;;;;;;;;;;9.00;44.00;;;;;;8384631;28;19924;-70
2022/03/09 20:35:24;;;;;;;;;;;8.90;44.20;;;;;;8392180;28;19966;-71
2022/03/09 20:39:27;;;;;;;;;;;8.80;44.40;;;;;;8391070;28;19968;-70
2022/03/09 20:43:29;;;;;;;;;;;8.80;44.60;;;;;;8394271;28;19947;-69
2022/03/09 20:47:30;;;;;;;;;;;8.80;44.30;;;;;;8390972;28;20664;-70
2022/03/09 20:51:33;;;;;;;;;;;8.90;44.00;;;;;;8390238;28;20313;-70
2022/03/09 20:55:35;;;;;;;;;;;8.90;44.30;;;;;;8371232;28;19925;-70
2022/03/09 20:59:37;;;;;;;;;;;8.90;44.00;;;;;;8383484;28;19932;-70
2022/03/09 21:03:39;;;;;;;;;;;9.00;44.10;;;;;;8383703;28;19925;-70
2022/03/09 21:07:41;;;;;;;;;;;9.00;43.50;;;;;;8383218;28;19924;-71
2022/03/09 21:11:42;;;;;;;;;;;8.90;43.60;;;;;;8384662;28;19931;-70
2022/03/09 21:15:44;;;;;;;;;;;8.70;44.10;;;;;;8383357;28;19983;-70
2022/03/09 21:19:46;;;;;;;;;;;8.60;44.10;;;;;;8365226;28;19939;-71
2022/03/09 21:23:47;;;;;;;;;;;8.40;44.10;;;;;;8384043;28;19931;-71
2022/03/09 21:27:49;;;;;;;;;;;8.30;44.20;;;;;;8383693;28;19936;-70
2022/03/09 21:31:51;;;;;;;;;;;8.30;44.30;;;;;;8381527;28;19932;-69
2022/03/09 21:35:53;;;;;;;;;;;8.40;44.50;;;;;;8385018;28;19925;-70
2022/03/09 21:39:55;;;;;;;;;;;8.30;44.00;;;;;;8381869;28;20000;-70
2022/03/09 21:43:57;;;;;;;;;;;8.20;44.20;;;;;;8380676;28;20351;-70
2022/03/09 21:47:59;;;;;;;;;;;8.00;44.30;;;;;;8376111;28;20387;-70
2022/03/09 21:52:00;;;;;;;;;;;7.90;44.50;;;;;;8383004;28;19924;-70
2022/03/09 21:56:02;;;;;;;;;;;7.80;44.40;;;;;;8378384;28;19932;-70
2022/03/09 22:00:04;;;;;;;;;;;7.80;44.50;;;;;;8365159;28;19932;-70
2022/03/09 22:04:06;;;;;;;;;;;7.80;44.50;;;;;;8397411;28;20253;-70
2022/03/09 22:08:08;;;;;;;;;;;7.60;44.50;;;;;;8389212;28;19935;-70
2022/03/09 22:12:10;;;;;;;;;;;7.50;44.60;;;;;;8405218;28;19935;-69
2022/03/09 22:16:11;;;;;;;;;;;7.50;44.50;;;;;;8387722;28;19928;-70
2022/03/09 22:20:13;;;;;;;;;;;7.50;44.50;;;;;;8404053;28;20015;-70
2022/03/09 22:24:15;;;;;;;;;;;7.50;44.80;;;;;;8396962;28;19954;-70
2022/03/09 22:28:17;;;;;;;;;;;7.50;44.60;;;;;;8398498;28;20135;-70
2022/03/09 22:32:18;;;;;;;;;;;7.60;44.40;;;;;;8411643;28;19947;-71
2022/03/09 22:36:20;;;;;;;;;;;7.60;44.30;;;;;;8389062;28;20303;-71
2022/03/09 22:40:21;;;;;;;;;;;7.50;44.10;;;;;;8418166;28;19924;-70
2022/03/09 22:44:23;;;;;;;;;;;7.50;44.40;;;;;;8406960;28;19924;-70
2022/03/09 22:48:25;;;;;;;;;;;7.40;43.90;;;;;;8415293;28;19947;-70
2022/03/09 22:52:26;;;;;;;;;;;7.40;44.10;;;;;;8411363;28;20240;-70
2022/03/09 22:56:28;;;;;;;;;;;7.40;43.90;;;;;;8414670;28;19931;-70
2022/03/09 23:00:36;;;;;;;;;;;7.30;44.00;;;;;;8376733;28;19927;-70
2022/03/09 23:05:27;;;;;;;;;;;7.30;44.20;;;;;;8416796;28;19967;-70
2022/03/09 23:09:01;;;;;;;;;;;7.30;44.20;;;;;;8408754;28;19932;-70
2022/03/09 23:13:03;;;;;;;;;;;7.20;43.50;;;;;;8414114;28;19924;-70
2022/03/09 23:17:05;;;;;;;;;;;7.00;43.60;;;;;;8411890;28;19924;-70
2022/03/09 23:21:06;;;;;;;;;;;6.90;43.90;;;;;;8411156;28;19928;-70
2022/03/09 23:25:08;;;;;;;;;;;6.80;43.90;;;;;;8394757;28;19947;-70
2022/03/09 23:29:10;;;;;;;;;;;6.80;43.90;;;;;;8396578;28;20318;-71
2022/03/09 23:33:12;;;;;;;;;;;6.60;43.90;;;;;;8419329;28;19925;-70
2022/03/09 23:37:13;;;;;;;;;;;6.50;43.90;;;;;;8411040;28;20295;-70
2022/03/09 23:41:15;;;;;;;;;;;6.40;44.10;;;;;;8415186;28;20171;-70
2022/03/09 23:45:16;;;;;;;;;;;6.30;44.40;;;;;;8416307;28;19944;-70